createdAt,value
2018-12-31T21:04:43.902Z,74.58
2018-12-31T21:07:15.419Z,76.74
2018-12-31T21:09:46.833Z,76.87
2018-12-31T21:12:24.134Z,75.99
2018-12-31T21:14:55.454Z,75.32
2018-12-31T21:17:26.955Z,74.36
2018-12-31T21:19:58.342Z,73.91
2018-12-31T21:22:29.639Z,74.51
2018-12-31T21:25:04.059Z,75.54
2018-12-31T21:27:35.778Z,75.61
2018-12-31T21:30:11.736Z,75.42
2018-12-31T21:32:44.142Z,75.14
2018-12-31T21:35:15.527Z,75.40
2018-12-31T21:37:47.177Z,74.47
2018-12-31T21:40:21.941Z,75.23
2018-12-31T21:42:53.340Z,74.50
2018-12-31T21:45:26.191Z,73.62
2018-12-31T21:47:59.576Z,72.63
2018-12-31T21:50:30.930Z,72.41
2018-12-31T21:53:02.242Z,73.57
2018-12-31T21:55:33.608Z,73.54
2018-12-31T21:58:05.210Z,72.94
2018-12-31T22:00:36.686Z,71.99
2018-12-31T22:03:08.235Z,70.53
2018-12-31T22:05:39.797Z,69.49
2018-12-31T22:08:11.235Z,69.03
2018-12-31T22:10:42.753Z,68.28
2018-12-31T22:13:14.188Z,67.96
2018-12-31T22:15:45.884Z,67.87
2018-12-31T22:18:19.052Z,67.68
2018-12-31T22:20:50.777Z,67.83
2018-12-31T22:23:22.136Z,68.42
2018-12-31T22:25:53.587Z,68.56
2018-12-31T22:28:24.951Z,67.76
2018-12-31T22:30:56.340Z,67.63
2018-12-31T22:33:31.372Z,67.49
2018-12-31T22:36:02.981Z,67.61
2018-12-31T22:38:34.698Z,67.45
2018-12-31T22:41:06.311Z,68.02
2018-12-31T22:43:37.805Z,67.66
2018-12-31T22:46:09.241Z,68.21
2018-12-31T22:48:42.279Z,68.52
2018-12-31T22:51:13.625Z,68.71
2018-12-31T22:53:45.119Z,68.32
2018-12-31T22:56:16.650Z,67.81
2018-12-31T22:58:48.146Z,67.76
2018-12-31T23:01:19.595Z,68.04
2018-12-31T23:03:51.277Z,67.85
2018-12-31T23:06:22.856Z,68.17
2018-12-31T23:08:54.293Z,68.24
2018-12-31T23:11:25.708Z,68.84
2018-12-31T23:13:57.657Z,68.26
2018-12-31T23:16:29.117Z,67.73
2018-12-31T23:19:00.422Z,67.73
2018-12-31T23:21:32.026Z,67.95
2018-12-31T23:24:03.568Z,67.83
2018-12-31T23:26:35.197Z,68.43
2018-12-31T23:29:06.801Z,68.03
2018-12-31T23:31:38.102Z,67.73
2018-12-31T23:34:09.665Z,67.58
2018-12-31T23:36:41.366Z,67.33
2018-12-31T23:39:12.797Z,67.37
2018-12-31T23:41:44.167Z,67.47
2018-12-31T23:44:15.569Z,67.33
2018-12-31T23:46:53.649Z,67.64
2018-12-31T23:49:26.696Z,67.84
2018-12-31T23:51:58.155Z,68.19
2018-12-31T23:54:29.771Z,67.78
2018-12-31T23:57:01.421Z,67.67
2018-12-31T23:59:32.872Z,67.97
